createdAt,value
2018-01-14T00:00:12.851Z,-2.50
2018-01-14T00:02:41.817Z,-2.40
2018-01-14T00:05:10.755Z,-2.40
2018-01-14T00:07:39.160Z,-2.40
2018-01-14T00:10:09.113Z,-2.40
2018-01-14T00:12:37.747Z,-2.40
2018-01-14T00:15:06.769Z,-2.40
2018-01-14T00:17:35.679Z,-2.50
2018-01-14T00:20:05.023Z,-2.40
2018-01-14T00:22:34.528Z,-2.60
2018-01-14T00:25:03.646Z,-2.60
2018-01-14T00:27:33.326Z,-2.70
2018-01-14T00:30:01.880Z,-2.60
2018-01-14T00:32:30.612Z,-2.60
2018-01-14T00:34:59.035Z,-2.70
2018-01-14T00:37:27.896Z,-2.70
2018-01-14T00:39:56.372Z,-2.80
2018-01-14T00:42:25.888Z,-2.80
2018-01-14T00:44:54.616Z,-2.80
2018-01-14T00:47:23.350Z,-2.70
2018-01-14T00:49:52.452Z,-2.70
2018-01-14T00:52:21.957Z,-2.70
2018-01-14T00:54:51.132Z,-2.70
2018-01-14T00:57:19.872Z,-2.80
2018-01-14T00:59:50.223Z,-2.80
2018-01-14T01:02:18.974Z,-2.70
2018-01-14T01:04:47.452Z,-2.70
2018-01-14T01:07:16.685Z,-2.70
2018-01-14T01:09:45.348Z,-2.60
2018-01-14T01:12:14.269Z,-2.60
2018-01-14T01:14:42.497Z,-2.70
2018-01-14T01:17:11.180Z,-2.70
2018-01-14T01:19:40.475Z,-2.70
2018-01-14T01:22:09.158Z,-2.70
2018-01-14T01:24:37.840Z,-2.70
2018-01-14T01:27:06.442Z,-2.70
2018-01-14T01:29:35.695Z,-2.70
2018-01-14T01:32:04.731Z,-2.70
2018-01-14T01:34:33.862Z,-2.60
2018-01-14T01:37:02.542Z,-2.60
2018-01-14T01:39:31.214Z,-2.60
2018-01-14T01:41:59.864Z,-2.60
2018-01-14T01:44:29.788Z,-2.70
2018-01-14T01:46:59.713Z,-2.90
2018-01-14T01:49:29.316Z,-2.90
2018-01-14T01:51:57.897Z,-2.90
2018-01-14T01:54:26.556Z,-2.90
2018-01-14T01:56:56.253Z,-2.90
2018-01-14T01:59:25.570Z,-2.90
2018-01-14T02:01:53.931Z,-2.90
2018-01-14T02:04:22.851Z,-2.90
2018-01-14T02:06:52.863Z,-2.90
2018-01-14T02:09:21.518Z,-3.00
2018-01-14T02:11:51.251Z,-3.00
2018-01-14T02:14:19.490Z,-3.10
2018-01-14T02:16:49.743Z,-3.10
2018-01-14T02:19:19.326Z,-3.20
2018-01-14T02:21:48.253Z,-3.20
2018-01-14T02:24:17.500Z,-3.10
2018-01-14T02:26:46.314Z,-3.10
2018-01-14T02:29:15.526Z,-3.10
2018-01-14T02:31:44.390Z,-3.00
2018-01-14T02:34:13.410Z,-2.90
2018-01-14T02:36:41.565Z,-2.90
2018-01-14T02:39:10.614Z,-2.90
2018-01-14T02:41:40.047Z,-2.90
2018-01-14T02:44:08.559Z,-2.80
2018-01-14T03:02:01.320Z,-2.90
2018-01-14T03:04:30.347Z,-2.80
2018-01-14T03:06:58.827Z,-2.80
2018-01-14T03:09:27.685Z,-2.80
2018-01-14T03:11:56.403Z,-2.80
2018-01-14T03:14:25.180Z,-2.80
2018-01-14T03:16:54.015Z,-2.90
2018-01-14T03:19:22.815Z,-2.90
2018-01-14T03:21:51.049Z,-2.90
2018-01-14T03:24:21.354Z,-2.80
2018-01-14T03:26:50.083Z,-2.70
2018-01-14T03:29:18.434Z,-2.70
2018-01-14T03:31:46.771Z,-2.70
2018-01-14T03:34:15.815Z,-2.70
2018-01-14T03:36:45.030Z,-2.60
2018-01-14T03:39:15.005Z,-2.50
2018-01-14T03:41:43.778Z,-2.50
2018-01-14T03:44:12.535Z,-2.50
2018-01-14T03:46:41.545Z,-2.40
2018-01-14T03:49:10.670Z,-2.30
2018-01-14T03:51:39.380Z,-2.20
2018-01-14T03:54:08.943Z,-2.20
2018-01-14T03:56:37.964Z,-2.00
2018-01-14T03:59:08.293Z,-2.00
2018-01-14T04:01:37.171Z,-2.00
2018-01-14T04:04:05.580Z,-2.00
2018-01-14T04:06:34.524Z,-1.90
2018-01-14T04:09:03.262Z,-1.90
2018-01-14T04:11:32.513Z,-1.80
2018-01-14T04:14:01.199Z,-1.70
2018-01-14T04:16:30.316Z,-1.60
2018-01-14T04:18:58.571Z,-1.50
2018-01-14T04:21:27.833Z,-1.50
2018-01-14T04:23:57.006Z,-1.50
2018-01-14T04:26:26.157Z,-1.40
2018-01-14T04:28:55.647Z,-1.30
2018-01-14T04:31:24.626Z,-1.20
2018-01-14T04:33:53.719Z,-1.20
2018-01-14T04:36:22.343Z,-1.20
2018-01-14T04:38:53.201Z,-1.10
2018-01-14T04:41:22.534Z,-1.00
2018-01-14T04:43:52.684Z,-1.00
2018-01-14T04:46:21.827Z,-1.00
2018-01-14T04:48:50.144Z,-0.90
2018-01-14T04:51:18.408Z,-0.80
2018-01-14T04:53:47.521Z,-0.80
2018-01-14T04:56:16.206Z,-0.80
2018-01-14T04:58:45.481Z,-0.70
2018-01-14T05:01:13.840Z,-0.70
2018-01-14T05:03:42.532Z,-0.70
2018-01-14T05:06:11.295Z,-0.60
2018-01-14T05:08:39.615Z,-0.60
2018-01-14T05:11:08.162Z,-0.60
2018-01-14T05:13:37.495Z,-0.60
2018-01-14T05:16:07.080Z,-0.60
2018-01-14T05:18:36.116Z,-0.50
2018-01-14T05:21:05.776Z,-0.50
2018-01-14T05:23:34.181Z,-0.40
2018-01-14T05:26:03.115Z,-0.30
2018-01-14T05:28:31.545Z,-0.40
2018-01-14T05:31:00.148Z,-0.40
2018-01-14T05:33:28.847Z,-0.30
2018-01-14T05:35:57.422Z,-0.30
2018-01-14T05:38:26.168Z,-0.30
2018-01-14T05:40:55.243Z,-0.20
2018-01-14T05:43:23.997Z,-0.20
2018-01-14T05:45:52.559Z,-0.20
2018-01-14T05:48:21.209Z,-0.30
2018-01-14T05:50:50.514Z,-0.70
2018-01-14T05:53:21.564Z,-0.70
2018-01-14T05:55:49.998Z,-0.70
2018-01-14T05:58:18.715Z,-0.60
2018-01-14T06:00:48.146Z,-0.40
2018-01-14T06:03:16.864Z,-0.40
2018-01-14T06:05:45.253Z,-0.40
2018-01-14T06:08:14.678Z,-0.50
2018-01-14T06:10:43.781Z,-0.50
2018-01-14T06:13:12.864Z,-0.50
2018-01-14T06:15:42.303Z,-0.50
2018-01-14T06:18:10.978Z,-0.50
2018-01-14T06:20:39.330Z,-0.50
2018-01-14T06:23:08.399Z,-0.50
2018-01-14T06:25:37.885Z,-0.50
2018-01-14T06:28:06.002Z,-0.50
2018-01-14T06:30:36.147Z,-0.20
2018-01-14T06:33:04.264Z,-0.30
2018-01-14T06:35:33.904Z,-0.10
2018-01-14T06:38:04.014Z,-0.10
2018-01-14T06:40:32.822Z,-0.10
2018-01-14T06:43:01.674Z,-0.10
2018-01-14T06:45:30.484Z,-0.10
2018-01-14T06:47:59.824Z,-0.10
2018-01-14T06:50:29.015Z,-0.10
2018-01-14T06:52:57.517Z,-0.10
2018-01-14T06:55:26.877Z,-0.10
2018-01-14T06:57:56.772Z,-0.10
2018-01-14T07:00:25.330Z,-0.10
2018-01-14T07:02:54.076Z,0.00
2018-01-14T07:05:24.153Z,0.00
2018-01-14T07:07:52.906Z,0.00
2018-01-14T07:10:21.662Z,0.10
2018-01-14T07:12:50.191Z,0.20
2018-01-14T07:15:18.661Z,0.20
2018-01-14T07:17:47.388Z,0.20
2018-01-14T07:20:15.327Z,0.20
2018-01-14T07:22:43.852Z,0.10
2018-01-14T07:25:12.782Z,0.10
2018-01-14T07:27:41.389Z,0.10
2018-01-14T07:30:09.555Z,0.10
2018-01-14T07:32:39.392Z,0.30
2018-01-14T07:35:08.623Z,0.20
2018-01-14T07:37:37.226Z,0.30
2018-01-14T07:40:05.885Z,0.30
2018-01-14T07:42:34.551Z,0.40
2018-01-14T07:45:02.876Z,0.40
2018-01-14T07:47:32.028Z,0.40
2018-01-14T07:50:00.907Z,0.50
2018-01-14T07:52:30.301Z,0.50
2018-01-14T07:54:59.650Z,0.60
2018-01-14T07:57:28.559Z,0.50
2018-01-14T07:59:58.397Z,0.60
2018-01-14T08:02:29.068Z,0.70
2018-01-14T08:04:58.243Z,0.70
2018-01-14T08:07:26.891Z,0.70
2018-01-14T08:09:56.039Z,0.70
2018-01-14T08:12:24.230Z,0.70
2018-01-14T08:14:52.911Z,0.70
2018-01-14T08:17:22.331Z,0.80
2018-01-14T08:19:50.784Z,0.90
2018-01-14T08:22:19.087Z,0.90
2018-01-14T08:24:47.803Z,1.00
2018-01-14T08:27:16.324Z,1.00
2018-01-14T08:29:45.213Z,1.00
2018-01-14T08:32:14.045Z,0.90
2018-01-14T08:34:42.699Z,0.80
2018-01-14T08:37:11.421Z,0.80
2018-01-14T08:39:40.943Z,1.00
2018-01-14T08:42:10.432Z,1.10
2018-01-14T08:44:39.381Z,1.20
2018-01-14T08:47:08.048Z,1.20
2018-01-14T08:49:36.607Z,1.20
2018-01-14T08:52:04.816Z,1.30
2018-01-14T08:54:34.055Z,1.40
2018-01-14T08:57:03.572Z,1.50
2018-01-14T08:59:31.618Z,1.50
2018-01-14T09:02:00.417Z,1.60
2018-01-14T09:04:29.293Z,1.70
2018-01-14T09:06:57.466Z,1.70
2018-01-14T09:09:26.647Z,1.70
2018-01-14T09:11:55.514Z,1.80
2018-01-14T09:14:24.823Z,1.90
2018-01-14T09:16:54.551Z,1.80
2018-01-14T09:19:22.675Z,1.70
2018-01-14T09:21:51.644Z,1.70
2018-01-14T09:24:20.373Z,1.70
2018-01-14T09:26:49.542Z,1.80
2018-01-14T09:29:18.319Z,1.70
2018-01-14T09:31:46.812Z,1.70
2018-01-14T09:34:15.862Z,1.70
2018-01-14T09:36:44.996Z,1.90
2018-01-14T09:39:13.183Z,1.70
2018-01-14T09:41:42.308Z,1.90
2018-01-14T09:44:11.554Z,1.90
2018-01-14T09:46:41.070Z,1.90
2018-01-14T09:49:09.688Z,2.00
2018-01-14T09:51:40.054Z,2.00
2018-01-14T09:54:08.911Z,2.00
2018-01-14T09:56:37.740Z,2.00
2018-01-14T09:59:05.972Z,2.00
2018-01-14T10:01:34.598Z,2.00
2018-01-14T10:04:03.320Z,2.20
2018-01-14T10:06:32.592Z,2.30
2018-01-14T10:09:01.137Z,2.20
2018-01-14T10:11:29.360Z,4.00
2018-01-14T10:13:58.516Z,2.30
2018-01-14T10:16:26.831Z,2.20
2018-01-14T10:18:55.529Z,2.00
2018-01-14T10:21:24.748Z,2.00
2018-01-14T10:23:53.492Z,2.10
2018-01-14T10:26:22.771Z,2.10
2018-01-14T10:28:51.578Z,2.20
2018-01-14T10:31:21.338Z,2.20
2018-01-14T10:33:50.661Z,2.30
2018-01-14T10:36:19.364Z,2.10
2018-01-14T10:38:48.857Z,2.20
2018-01-14T10:41:17.335Z,2.30
2018-01-14T10:43:47.146Z,2.40
2018-01-14T10:46:15.564Z,2.30
2018-01-14T10:48:44.052Z,2.40
2018-01-14T10:51:12.499Z,2.40
2018-01-14T10:53:41.316Z,2.40
2018-01-14T10:56:10.967Z,2.50
2018-01-14T10:58:44.457Z,2.50
2018-01-14T11:01:13.945Z,2.40
2018-01-14T11:03:42.607Z,2.40
2018-01-14T11:06:10.844Z,2.50
2018-01-14T11:08:40.214Z,2.40
2018-01-14T11:11:08.675Z,2.40
2018-01-14T11:13:37.529Z,2.50
2018-01-14T11:16:06.321Z,2.50
2018-01-14T11:18:35.090Z,2.60
2018-01-14T11:21:04.221Z,2.60
2018-01-14T11:23:32.800Z,2.60
2018-01-14T11:26:01.393Z,2.60
2018-01-14T11:28:30.228Z,2.70
2018-01-14T11:31:00.759Z,2.70
2018-01-14T11:33:29.750Z,2.60
2018-01-14T11:35:58.749Z,2.80
2018-01-14T11:38:27.784Z,2.80
2018-01-14T11:40:58.084Z,2.80
2018-01-14T11:43:26.606Z,2.80
2018-01-14T11:45:54.778Z,2.80
2018-01-14T11:48:23.589Z,2.70
2018-01-14T11:50:52.400Z,2.80
2018-01-14T11:53:20.776Z,2.80
2018-01-14T11:55:49.199Z,2.80
2018-01-14T11:58:18.412Z,2.90
2018-01-14T12:00:46.536Z,2.90
2018-01-14T12:03:15.762Z,2.90
2018-01-14T12:05:44.850Z,2.70
2018-01-14T12:08:13.499Z,2.80
2018-01-14T12:10:42.153Z,2.90
2018-01-14T12:13:11.980Z,3.10
2018-01-14T12:15:41.182Z,3.00
2018-01-14T12:18:09.425Z,3.10
2018-01-14T12:20:38.419Z,3.10
2018-01-14T12:23:07.882Z,3.00
2018-01-14T12:25:36.567Z,3.00
2018-01-14T12:28:05.919Z,3.10
2018-01-14T12:30:34.779Z,2.90
2018-01-14T12:33:03.946Z,2.90
2018-01-14T12:35:32.314Z,2.80
2018-01-14T12:38:00.539Z,2.80
2018-01-14T12:40:29.328Z,2.70
2018-01-14T12:42:58.217Z,2.70
2018-01-14T12:45:28.539Z,2.70
2018-01-14T12:47:57.645Z,2.80
2018-01-14T12:50:25.858Z,2.80
2018-01-14T12:52:55.737Z,2.80
2018-01-14T12:55:24.410Z,2.80
2018-01-14T12:57:53.169Z,2.80
2018-01-14T13:00:21.995Z,2.80
2018-01-14T13:02:51.016Z,2.80
2018-01-14T13:05:20.856Z,2.90
2018-01-14T13:07:49.577Z,2.90
2018-01-14T13:10:19.585Z,3.00
2018-01-14T13:12:48.456Z,3.00
2018-01-14T13:15:18.320Z,3.10
2018-01-14T13:17:46.813Z,3.10
2018-01-14T13:20:15.262Z,3.00
2018-01-14T13:22:44.207Z,3.00
2018-01-14T13:25:12.509Z,2.90
2018-01-14T13:27:43.174Z,2.80
2018-01-14T13:30:12.087Z,2.80
2018-01-14T13:32:41.483Z,2.80
2018-01-14T13:35:09.938Z,2.80
2018-01-14T13:37:39.591Z,2.90
2018-01-14T13:40:07.999Z,2.80
2018-01-14T13:42:36.681Z,2.80
2018-01-14T13:45:05.801Z,2.80
2018-01-14T13:47:34.670Z,2.80
2018-01-14T13:50:03.327Z,2.80
2018-01-14T13:52:32.318Z,2.70
2018-01-14T13:55:01.662Z,2.70
2018-01-14T13:57:30.364Z,2.60
2018-01-14T13:59:59.679Z,2.70
2018-01-14T14:02:28.377Z,2.70
2018-01-14T14:04:57.362Z,2.70
2018-01-14T14:07:26.034Z,2.70
2018-01-14T14:09:55.096Z,2.80
2018-01-14T14:12:24.273Z,2.80
2018-01-14T14:14:53.646Z,2.80
2018-01-14T14:17:22.822Z,2.80
2018-01-14T14:19:51.850Z,2.80
2018-01-14T14:22:21.446Z,2.80
2018-01-14T14:24:53.084Z,2.80
2018-01-14T14:27:23.137Z,2.80
2018-01-14T14:29:53.223Z,2.70
2018-01-14T14:32:22.340Z,2.70
2018-01-14T14:34:51.742Z,2.60
2018-01-14T14:37:20.762Z,2.60
2018-01-14T14:39:49.664Z,2.60
2018-01-14T14:42:18.770Z,2.60
2018-01-14T14:44:47.292Z,2.60
2018-01-14T14:47:16.146Z,2.60
2018-01-14T14:49:44.640Z,2.60
2018-01-14T14:52:14.308Z,2.50
2018-01-14T14:54:43.627Z,2.50
2018-01-14T14:57:12.266Z,2.50
2018-01-14T14:59:40.996Z,2.50
2018-01-14T15:02:09.862Z,2.40
2018-01-14T15:04:38.627Z,2.40
2018-01-14T15:07:07.759Z,2.50
2018-01-14T15:09:35.978Z,2.50
2018-01-14T15:12:04.674Z,2.40
2018-01-14T15:14:33.451Z,2.40
2018-01-14T15:17:02.339Z,2.40
2018-01-14T15:19:31.091Z,2.30
2018-01-14T15:21:59.811Z,2.30
2018-01-14T15:24:28.713Z,2.30
2018-01-14T15:26:58.142Z,2.30
2018-01-14T15:29:26.868Z,2.30
2018-01-14T15:31:55.989Z,2.30
2018-01-14T15:34:26.202Z,2.30
2018-01-14T15:36:54.702Z,2.20
2018-01-14T15:39:24.063Z,2.10
2018-01-14T15:41:52.567Z,2.10
2018-01-14T15:44:22.006Z,2.10
2018-01-14T15:46:50.872Z,2.10
2018-01-14T15:49:19.365Z,2.10
2018-01-14T15:51:49.265Z,2.20
2018-01-14T15:54:18.801Z,2.30
2018-01-14T15:56:48.201Z,2.30
2018-01-14T15:59:17.031Z,2.30
2018-01-14T16:01:45.849Z,2.20
2018-01-14T16:04:15.203Z,2.20
2018-01-14T16:06:43.995Z,2.10
2018-01-14T16:09:13.221Z,2.10
2018-01-14T16:11:42.585Z,2.10
2018-01-14T16:14:10.961Z,2.10
2018-01-14T16:16:41.292Z,2.10
2018-01-14T16:19:10.931Z,2.00
2018-01-14T16:21:39.462Z,2.00
2018-01-14T16:24:08.830Z,2.00
2018-01-14T16:26:38.464Z,2.00
2018-01-14T16:29:08.791Z,1.90
2018-01-14T16:31:37.996Z,2.10
2018-01-14T16:34:06.688Z,2.00
2018-01-14T16:36:36.579Z,2.00
2018-01-14T16:39:05.913Z,2.10
2018-01-14T16:41:35.715Z,2.00
2018-01-14T16:44:04.403Z,2.00
2018-01-14T16:46:33.582Z,2.00
2018-01-14T16:49:02.478Z,2.00
2018-01-14T16:51:31.090Z,2.10
2018-01-14T16:54:00.076Z,2.00
2018-01-14T16:56:30.358Z,2.00
2018-01-14T16:58:58.520Z,2.00
2018-01-14T17:01:27.568Z,2.00
2018-01-14T17:03:56.737Z,2.00
2018-01-14T17:06:25.369Z,2.00
2018-01-14T17:08:53.987Z,1.90
2018-01-14T17:11:23.461Z,1.90
2018-01-14T17:13:52.299Z,1.90
2018-01-14T17:16:21.022Z,1.80
2018-01-14T17:18:50.702Z,1.90
2018-01-14T17:21:19.624Z,1.90
2018-01-14T17:23:48.300Z,1.90
2018-01-14T17:26:16.707Z,1.90
2018-01-14T17:28:45.373Z,1.90
2018-01-14T17:31:15.368Z,2.00
2018-01-14T17:33:43.694Z,2.10
2018-01-14T17:36:13.501Z,2.00
2018-01-14T17:38:43.219Z,1.90
2018-01-14T17:41:11.866Z,1.90
2018-01-14T17:43:40.739Z,1.90
2018-01-14T17:46:10.143Z,1.90
2018-01-14T17:48:40.597Z,1.80
2018-01-14T17:51:10.302Z,1.90
2018-01-14T17:53:39.097Z,1.90
2018-01-14T17:56:07.801Z,1.90
2018-01-14T17:58:36.065Z,1.90
2018-01-14T18:01:05.303Z,2.00
2018-01-14T18:03:46.942Z,2.00
2018-01-14T18:06:15.522Z,2.00
2018-01-14T18:08:44.782Z,1.90
2018-01-14T18:11:14.085Z,1.90
2018-01-14T18:13:42.899Z,1.90
2018-01-14T18:16:12.214Z,1.90
2018-01-14T18:18:41.111Z,1.90
2018-01-14T18:21:10.070Z,1.90
2018-01-14T18:23:40.692Z,1.90
2018-01-14T18:26:10.937Z,2.00
2018-01-14T18:28:39.565Z,2.00
2018-01-14T18:31:08.869Z,2.00
2018-01-14T18:33:37.220Z,2.10
2018-01-14T18:51:29.737Z,2.10
2018-01-14T18:53:58.344Z,1.70
2018-01-14T18:56:27.037Z,1.70
2018-01-14T18:58:56.253Z,1.70
2018-01-14T19:01:26.293Z,1.80
2018-01-14T19:03:55.604Z,1.80
2018-01-14T19:06:25.184Z,1.90
2018-01-14T19:08:54.662Z,1.90
2018-01-14T19:11:23.993Z,1.90
2018-01-14T19:13:53.430Z,1.80
2018-01-14T19:16:22.071Z,1.80
2018-01-14T19:18:50.963Z,1.80
2018-01-14T19:21:20.856Z,1.80
2018-01-14T19:23:48.945Z,1.80
2018-01-14T19:26:18.575Z,1.80
2018-01-14T19:28:47.562Z,1.80
2018-01-14T19:31:17.092Z,1.80
2018-01-14T19:33:46.219Z,1.80
2018-01-14T19:51:38.792Z,1.80
2018-01-14T19:54:07.640Z,1.80
2018-01-14T19:56:36.069Z,1.80
2018-01-14T19:59:04.920Z,1.80
2018-01-14T20:01:33.986Z,1.70
2018-01-14T20:04:03.041Z,1.70
2018-01-14T20:06:32.307Z,1.70
2018-01-14T20:09:00.775Z,1.70
2018-01-14T20:11:29.513Z,1.80
2018-01-14T20:13:58.024Z,1.80
2018-01-14T20:16:26.705Z,1.80
2018-01-14T20:18:55.433Z,1.80
2018-01-14T20:21:24.325Z,1.80
2018-01-14T20:23:52.776Z,1.90
2018-01-14T20:26:21.344Z,1.90
2018-01-14T20:28:49.489Z,1.90
2018-01-14T20:31:18.434Z,1.80
2018-01-14T20:33:47.782Z,1.80
2018-01-14T20:36:17.504Z,1.80
2018-01-14T20:38:46.332Z,1.90
2018-01-14T20:41:15.553Z,1.80
2018-01-14T20:43:44.649Z,1.80
2018-01-14T20:46:13.304Z,1.80
2018-01-14T20:48:43.913Z,1.90
2018-01-14T20:51:12.807Z,1.90
2018-01-14T20:53:43.450Z,1.80
2018-01-14T20:56:12.409Z,1.80
2018-01-14T20:58:41.747Z,1.90
2018-01-14T21:01:10.351Z,1.80
2018-01-14T21:03:38.894Z,1.80
2018-01-14T21:06:07.567Z,1.70
2018-01-14T21:08:35.847Z,1.60
2018-01-14T21:11:04.485Z,1.50
2018-01-14T21:13:34.651Z,1.50
2018-01-14T21:16:05.516Z,1.50
2018-01-14T21:18:35.131Z,1.50
2018-01-14T21:21:03.705Z,1.60
2018-01-14T21:23:31.778Z,1.70
2018-01-14T21:26:01.192Z,1.70
2018-01-14T21:28:30.551Z,1.70
2018-01-14T21:31:00.058Z,1.70
2018-01-14T21:33:28.488Z,1.70
2018-01-14T21:35:57.708Z,1.60
2018-01-14T21:38:25.928Z,1.60
2018-01-14T21:40:56.129Z,1.60
2018-01-14T21:43:25.683Z,1.50
2018-01-14T21:45:53.988Z,1.50
2018-01-14T21:48:23.655Z,1.30
2018-01-14T21:50:52.178Z,1.30
2018-01-14T21:53:20.959Z,1.30
2018-01-14T21:55:50.025Z,1.40
2018-01-14T21:58:18.476Z,1.30
2018-01-14T22:00:47.016Z,1.40
2018-01-14T22:03:16.684Z,1.30
2018-01-14T22:05:46.830Z,1.30
2018-01-14T22:08:15.928Z,1.30
2018-01-14T22:10:44.797Z,1.30
2018-01-14T22:13:13.512Z,1.40
2018-01-14T22:15:43.883Z,1.30
2018-01-14T22:18:12.065Z,1.20
2018-01-14T22:20:40.216Z,1.20
2018-01-14T22:23:09.167Z,1.20
2018-01-14T22:25:37.487Z,1.20
2018-01-14T22:28:05.915Z,1.30
2018-01-14T22:30:36.379Z,1.20
2018-01-14T22:33:04.668Z,1.20
2018-01-14T22:35:32.986Z,1.10
2018-01-14T22:38:02.279Z,1.10
2018-01-14T22:40:30.903Z,1.00
2018-01-14T22:43:00.854Z,1.00
2018-01-14T22:45:30.469Z,0.90
2018-01-14T22:47:59.454Z,0.90
2018-01-14T22:50:28.451Z,0.90
2018-01-14T22:52:58.311Z,1.00
2018-01-14T22:55:27.609Z,1.00
2018-01-14T22:57:56.536Z,1.10
2018-01-14T23:00:25.890Z,1.00
2018-01-14T23:02:54.991Z,0.90
2018-01-14T23:05:23.211Z,0.90
2018-01-14T23:07:52.252Z,0.80
2018-01-14T23:10:21.351Z,0.80
2018-01-14T23:12:50.202Z,0.70
2018-01-14T23:15:19.181Z,0.60
2018-01-14T23:17:49.112Z,0.50
2018-01-14T23:20:17.272Z,0.50
2018-01-14T23:22:46.010Z,0.50
2018-01-14T23:25:14.728Z,0.60
2018-01-14T23:27:43.400Z,0.50
2018-01-14T23:30:13.181Z,0.50
2018-01-14T23:32:42.461Z,0.40
2018-01-14T23:35:10.852Z,0.40
2018-01-14T23:37:40.338Z,0.30
2018-01-14T23:40:09.436Z,0.20
2018-01-14T23:42:38.870Z,0.10
2018-01-14T23:45:08.098Z,0.10
2018-01-14T23:47:36.864Z,0.00
2018-01-14T23:50:05.094Z,0.00
2018-01-14T23:52:34.434Z,0.10
2018-01-14T23:55:03.343Z,0.00
2018-01-14T23:57:33.038Z,-0.10
